Time;durP1;ratioP1;P1;durP2;ratioP2;P2;SDS_P1;SDS_P2;PMS_P1;PMS_P2;Temp;Humidity;BMP_temperature;BMP_pressure;BME280_temperature;BME280_humidity;BME280_pressure;Samples;Min_cycle;Max_cycle;Signal;HPM_P1;HPM_P2
2022/09/01 00:01:40;;;;;;;2.50;2.40;;;21.70;66.80;;;;;;5010045;28;20638;-83
2022/09/01 00:04:12;;;;;;;2.47;2.27;;;21.60;67.10;;;;;;5014584;28;20458;-83
2022/09/01 00:06:45;;;;;;;2.53;2.33;;;21.50;67.80;;;;;;5016336;28;20469;-82
2022/09/01 00:09:15;;;;;;;2.70;2.30;;;21.50;68.20;;;;;;5021334;28;20465;-83
2022/09/01 00:11:46;;;;;;;2.47;2.37;;;21.60;68.40;;;;;;5022069;28;20450;-83
2022/09/01 00:14:17;;;;;;;3.00;2.53;;;21.70;67.90;;;;;;5020690;28;21751;-82
2022/09/01 00:16:57;;;;;;;2.70;2.50;;;21.70;68.30;;;;;;5028084;28;20473;-84
2022/09/01 00:19:25;;;;;;;2.70;2.50;;;21.80;67.50;;;;;;5029554;28;20454;-83
2022/09/01 00:21:52;;;;;;;3.13;2.40;;;21.70;67.80;;;;;;5014395;28;20508;-82
2022/09/01 00:24:19;;;;;;;2.53;2.33;;;21.70;67.60;;;;;;5014636;28;20443;-82
2022/09/01 00:26:47;;;;;;;3.00;2.80;;;21.60;68.00;;;;;;5019571;28;20466;-81
2022/09/01 00:29:15;;;;;;;2.43;2.33;;;21.50;68.40;;;;;;5030721;28;20458;-83
2022/09/01 00:31:42;;;;;;;2.50;2.30;;;21.50;68.10;;;;;;5028371;28;20470;-82
2022/09/01 00:34:10;;;;;;;3.13;2.47;;;21.50;68.00;;;;;;5032013;28;20454;-83
2022/09/01 00:36:37;;;;;;;2.90;2.57;;;21.50;67.60;;;;;;5019376;28;20461;-84
2022/09/01 00:39:05;;;;;;;3.90;2.70;;;21.50;68.20;;;;;;5025468;28;20640;-84
2022/09/01 00:41:37;;;;;;;3.03;2.77;;;21.60;68.10;;;;;;5031810;28;20470;-83
2022/09/01 00:44:07;;;;;;;2.80;2.27;;;21.50;68.20;;;;;;5017123;28;20450;-82
2022/09/01 00:46:38;;;;;;;2.73;2.53;;;21.50;67.90;;;;;;5009161;28;20470;-82
2022/09/01 00:49:30;;;;;;;3.53;2.20;;;21.60;68.00;;;;;;5011775;28;20494;-83
2022/09/01 00:52:08;;;;;;;2.63;2.17;;;21.50;68.30;;;;;;5009135;28;20454;-81
2022/09/01 00:54:38;;;;;;;2.33;2.20;;;21.50;68.70;;;;;;5009824;28;20450;-82
2022/09/01 00:57:07;;;;;;;2.83;2.20;;;21.40;67.90;;;;;;5009102;28;21023;-82
2022/09/01 00:59:37;;;;;;;2.50;2.40;;;21.30;68.50;;;;;;5009957;28;20446;-80
2022/09/01 01:02:04;;;;;;;2.47;2.37;;;21.20;69.60;;;;;;5008929;28;20482;-81
2022/09/01 01:04:31;;;;;;;2.43;2.33;;;21.20;70.50;;;;;;5010329;28;20454;-82
2022/09/01 01:07:00;;;;;;;2.60;2.40;;;21.30;69.80;;;;;;5012692;28;20465;-83
2022/09/01 01:09:30;;;;;;;2.10;2.00;;;21.30;69.80;;;;;;5014932;28;20497;-83
2022/09/01 01:11:59;;;;;;;3.27;2.97;;;21.30;69.20;;;;;;5013302;28;20431;-82
2022/09/01 01:14:30;;;;;;;5.90;2.40;;;21.20;69.30;;;;;;5013057;28;20912;-83
2022/09/01 01:16:58;;;;;;;4.37;2.30;;;21.10;70.10;;;;;;5018073;28;20482;-83
2022/09/01 01:23:01;;;;;;;2.70;2.50;;;21.20;70.80;;;;;;5019775;28;20478;-84
2022/09/01 01:25:35;;;;;;;2.60;2.40;;;21.10;70.90;;;;;;5016795;28;20442;-82
2022/09/01 01:28:08;;;;;;;2.73;2.50;;;21.00;71.90;;;;;;5019396;28;20505;-83
2022/09/01 01:30:36;;;;;;;2.70;2.23;;;21.10;71.60;;;;;;5018896;28;20447;-82
2022/09/01 01:33:04;;;;;;;2.17;2.07;;;20.80;70.80;;;;;;5019169;28;20460;-83
2022/09/01 01:35:32;;;;;;;2.33;2.13;;;20.80;71.60;;;;;;5018395;28;20445;-82
2022/09/01 01:38:00;;;;;;;2.20;2.10;;;20.80;71.90;;;;;;5020375;28;20474;-83
2022/09/01 01:40:29;;;;;;;2.30;2.10;;;20.90;72.30;;;;;;5031794;28;20465;-82
2022/09/01 01:42:59;;;;;;;2.63;2.40;;;21.10;71.80;;;;;;5013222;28;20455;-82
2022/09/01 01:45:28;;;;;;;2.23;2.13;;;21.10;71.60;;;;;;5015122;28;20451;-82
2022/09/01 01:47:55;;;;;;;2.20;2.10;;;21.10;71.20;;;;;;5017078;28;20493;-83
2022/09/01 01:50:34;;;;;;;2.30;2.17;;;21.00;71.50;;;;;;5018195;28;20465;-84
2022/09/01 01:53:03;;;;;;;2.60;2.40;;;21.00;71.30;;;;;;5017660;28;20461;-85
2022/09/01 01:55:35;;;;;;;2.33;2.10;;;21.00;71.90;;;;;;5019682;28;20460;-83
2022/09/01 01:58:04;;;;;;;2.07;1.93;;;20.80;72.40;;;;;;5016222;28;20474;-82
2022/09/01 02:00:33;;;;;;;2.03;1.93;;;20.80;72.70;;;;;;5019060;28;20698;-83
2022/09/01 02:03:00;;;;;;;2.40;2.30;;;20.80;72.50;;;;;;5019526;28;20441;-82
2022/09/01 02:05:30;;;;;;;2.20;2.00;;;20.70;72.90;;;;;;5015406;28;20453;-83
2022/09/01 02:08:03;;;;;;;2.33;2.23;;;20.90;72.40;;;;;;5015227;28;20944;-84
2022/09/01 02:10:37;;;;;;;1.90;1.73;;;20.70;72.30;;;;;;5026129;28;20517;-81
2022/09/01 02:13:06;;;;;;;3.10;2.70;;;20.80;72.40;;;;;;5018950;28;20935;-82
2022/09/01 02:15:43;;;;;;;2.53;2.30;;;20.60;72.90;;;;;;5016436;28;20890;-84
2022/09/01 02:18:15;;;;;;;3.13;2.57;;;20.60;73.70;;;;;;5016769;28;20468;-81
2022/09/01 02:20:48;;;;;;;2.67;2.47;;;20.60;73.90;;;;;;5019999;28;20454;-84
2022/09/01 02:23:18;;;;;;;2.43;2.23;;;20.60;74.20;;;;;;5011799;28;20443;-81
2022/09/01 02:25:45;;;;;;;4.73;2.60;;;20.60;74.60;;;;;;5016653;28;20461;-82
2022/09/01 02:28:35;;;;;;;2.63;2.43;;;20.70;73.90;;;;;;5024412;28;20454;-83
2022/09/01 02:31:03;;;;;;;2.40;2.30;;;20.70;74.00;;;;;;5022541;28;20455;-83
2022/09/01 02:33:31;;;;;;;2.37;2.27;;;20.50;74.50;;;;;;5022822;28;20476;-84
2022/09/01 02:36:00;;;;;;;4.57;2.60;;;20.50;75.20;;;;;;5023745;28;20454;-84
2022/09/01 02:38:28;;;;;;;2.67;2.47;;;20.40;75.70;;;;;;5018596;28;20472;-82
2022/09/01 02:40:57;;;;;;;3.33;3.10;;;20.40;76.00;;;;;;5010088;28;20454;-83
2022/09/01 02:43:27;;;;;;;2.37;2.17;;;20.60;75.90;;;;;;5015509;28;20438;-83
2022/09/01 02:45:58;;;;;;;2.27;2.17;;;20.50;75.30;;;;;;5016051;28;20449;-83
2022/09/01 02:48:31;;;;;;;2.20;1.93;;;20.50;75.50;;;;;;5015976;28;20974;-83
2022/09/01 02:51:00;;;;;;;2.57;2.37;;;20.50;74.80;;;;;;5014072;28;20482;-84
2022/09/01 02:53:33;;;;;;;3.53;1.80;;;20.50;74.40;;;;;;5016288;28;20549;-84
2022/09/01 02:56:08;;;;;;;2.63;2.43;;;20.40;74.30;;;;;;5012226;28;21003;-83
2022/09/01 02:58:44;;;;;;;2.37;2.20;;;20.30;74.70;;;;;;5005089;28;20464;-81
2022/09/01 03:01:19;;;;;;;2.30;2.10;;;20.20;75.30;;;;;;5015462;28;20488;-83
2022/09/01 03:03:50;;;;;;;2.40;2.20;;;20.30;75.60;;;;;;5014458;28;20950;-82
2022/09/01 03:06:19;;;;;;;3.10;2.70;;;20.20;76.10;;;;;;5026256;28;20430;-83
2022/09/01 03:08:47;;;;;;;2.60;2.40;;;20.10;76.70;;;;;;5013951;28;20474;-82
2022/09/01 03:11:14;;;;;;;2.20;2.10;;;20.00;77.40;;;;;;5017251;28;20540;-83
2022/09/01 03:13:42;;;;;;;3.00;2.20;;;20.00;77.40;;;;;;5017316;28;20464;-83
2022/09/01 03:16:09;;;;;;;3.77;2.13;;;19.90;77.70;;;;;;5017728;28;20445;-81
2022/09/01 03:18:37;;;;;;;3.33;2.17;;;19.80;78.00;;;;;;5014951;28;20476;-82
2022/09/01 03:21:05;;;;;;;2.47;2.30;;;19.90;78.50;;;;;;5016098;28;20441;-82
2022/09/01 03:23:32;;;;;;;2.63;1.90;;;19.90;78.30;;;;;;5016765;28;20462;-82
2022/09/01 03:26:00;;;;;;;2.23;1.80;;;20.10;78.20;;;;;;5015301;28;20453;-83
2022/09/01 03:28:27;;;;;;;2.33;2.20;;;20.10;77.50;;;;;;5012786;28;20478;-81
2022/09/01 03:30:56;;;;;;;2.57;2.30;;;20.10;77.40;;;;;;5016588;28;20446;-82
2022/09/01 03:33:25;;;;;;;2.63;2.00;;;20.00;77.50;;;;;;5015937;28;20458;-83
2022/09/01 03:35:52;;;;;;;1.90;1.80;;;19.80;77.90;;;;;;5016704;28;20462;-81
2022/09/01 03:38:23;;;;;;;3.50;2.50;;;19.90;77.90;;;;;;5012877;28;20933;-81
2022/09/01 03:40:59;;;;;;;1.90;1.80;;;19.80;78.10;;;;;;5014958;28;20450;-82
2022/09/01 03:43:30;;;;;;;3.27;2.13;;;19.70;78.50;;;;;;5018818;28;20442;-83
2022/09/01 03:46:01;;;;;;;2.20;2.00;;;19.80;79.20;;;;;;5016941;28;20453;-83
2022/09/01 03:48:30;;;;;;;3.00;2.00;;;19.90;78.60;;;;;;5017803;28;20478;-82
2022/09/01 03:51:01;;;;;;;2.20;2.00;;;19.70;78.50;;;;;;5016505;28;20446;-83
2022/09/01 03:53:36;;;;;;;2.20;1.83;;;19.60;78.90;;;;;;5012032;28;20462;-83
2022/09/01 03:56:04;;;;;;;3.03;2.47;;;19.70;78.70;;;;;;5015384;28;20448;-82
2022/09/01 03:58:31;;;;;;;2.77;2.30;;;19.70;79.60;;;;;;5013290;28;20465;-83
2022/09/01 04:01:00;;;;;;;2.90;2.50;;;19.70;79.90;;;;;;5014721;28;20446;-83
2022/09/01 04:03:31;;;;;;;2.50;2.30;;;19.60;80.10;;;;;;5014864;28;20934;-82
2022/09/01 04:06:00;;;;;;;2.50;2.30;;;19.60;81.20;;;;;;5013012;28;20433;-83
2022/09/01 04:08:30;;;;;;;2.60;2.40;;;19.70;80.70;;;;;;5016230;28;20516;-85
2022/09/01 04:11:03;;;;;;;2.40;2.20;;;19.70;80.30;;;;;;5015214;28;20437;-82
2022/09/01 04:13:35;;;;;;;2.23;2.03;;;19.50;80.60;;;;;;5017938;28;20470;-83
2022/09/01 04:16:09;;;;;;;2.53;2.33;;;19.50;81.40;;;;;;5018239;28;20442;-82
2022/09/01 04:18:38;;;;;;;2.60;2.40;;;19.50;81.90;;;;;;5015173;28;21099;-81
2022/09/01 04:21:06;;;;;;;3.20;2.03;;;19.60;81.40;;;;;;5016593;28;20446;-83
2022/09/01 04:23:35;;;;;;;2.63;2.27;;;19.50;81.50;;;;;;5017448;28;20740;-84
2022/09/01 04:26:10;;;;;;;2.30;1.90;;;19.50;81.60;;;;;;5015105;28;20470;-83
2022/09/01 04:28:40;;;;;;;2.20;2.10;;;19.50;81.60;;;;;;5016381;28;20940;-82
2022/09/01 04:31:17;;;;;;;2.57;2.30;;;19.60;81.90;;;;;;5013578;28;20551;-83
2022/09/01 04:33:46;;;;;;;3.60;2.43;;;19.60;82.30;;;;;;5012848;28;20532;-82
2022/09/01 04:36:19;;;;;;;3.20;2.90;;;19.60;82.50;;;;;;5013183;28;20481;-85
2022/09/01 04:38:48;;;;;;;2.50;2.30;;;19.70;82.10;;;;;;5013838;28;21782;-83
2022/09/01 04:41:16;;;;;;;2.53;2.33;;;19.60;82.00;;;;;;5015469;28;20999;-83
2022/09/01 04:43:46;;;;;;;2.23;2.07;;;19.60;83.00;;;;;;5015257;28;20461;-83
2022/09/01 04:46:16;;;;;;;3.10;2.40;;;19.60;82.00;;;;;;5014209;28;20454;-81
2022/09/01 04:48:44;;;;;;;1.93;1.83;;;19.40;82.50;;;;;;5016587;28;20474;-82
2022/09/01 04:51:14;;;;;;;2.03;1.83;;;19.40;82.90;;;;;;5018185;28;20450;-80
2022/09/01 04:53:47;;;;;;;2.10;2.00;;;19.50;82.50;;;;;;5019550;28;20530;-83
2022/09/01 04:56:21;;;;;;;2.47;2.03;;;19.60;82.00;;;;;;5017533;28;20472;-81
2022/09/01 04:58:50;;;;;;;2.07;1.97;;;19.50;82.20;;;;;;5017813;28;20484;-81
2022/09/01 05:01:20;;;;;;;5.40;3.20;;;19.40;82.70;;;;;;5021211;28;20537;-83
2022/09/01 05:03:55;;;;;;;2.20;2.10;;;19.50;82.90;;;;;;5021689;28;20784;-82
2022/09/01 05:06:22;;;;;;;1.80;1.70;;;19.60;82.50;;;;;;5019172;28;20489;-79
2022/09/01 05:08:50;;;;;;;3.00;2.30;;;19.50;82.40;;;;;;5028542;28;20485;-83
2022/09/01 05:11:17;;;;;;;2.40;2.20;;;19.50;82.30;;;;;;5027686;28;20434;-82
2022/09/01 05:13:46;;;;;;;2.30;2.10;;;19.50;83.00;;;;;;5022585;28;20468;-83
2022/09/01 05:16:20;;;;;;;2.10;1.90;;;19.60;83.20;;;;;;5023136;28;20485;-84
2022/09/01 05:18:53;;;;;;;1.80;1.70;;;19.70;83.10;;;;;;5021957;28;20469;-82
2022/09/01 05:21:25;;;;;;;2.07;1.97;;;19.70;81.70;;;;;;5020158;28;20544;-82
2022/09/01 05:23:53;;;;;;;2.57;1.80;;;19.70;82.10;;;;;;5024058;28;20501;-83
2022/09/01 05:26:25;;;;;;;2.13;1.83;;;19.60;81.90;;;;;;5023432;28;20456;-82
2022/09/01 05:28:55;;;;;;;2.40;2.20;;;19.50;82.00;;;;;;5019429;28;20449;-83
2022/09/01 05:31:26;;;;;;;2.43;2.20;;;19.50;82.10;;;;;;5021266;28;20848;-83
2022/09/01 05:33:56;;;;;;;2.40;1.80;;;19.50;82.80;;;;;;5014740;28;20505;-81
2022/09/01 05:36:24;;;;;;;4.63;1.83;;;19.50;82.40;;;;;;5018733;28;20457;-82
2022/09/01 05:38:51;;;;;;;2.50;2.30;;;19.60;82.50;;;;;;5018373;28;20476;-83
2022/09/01 05:41:22;;;;;;;2.30;2.10;;;19.60;82.50;;;;;;5019156;28;20537;-84
2022/09/01 05:43:51;;;;;;;3.00;2.23;;;19.50;83.40;;;;;;5020254;28;20486;-83
2022/09/01 05:46:25;;;;;;;2.10;1.90;;;19.50;83.40;;;;;;5017584;28;20529;-83
2022/09/01 05:48:53;;;;;;;2.30;2.10;;;19.50;84.10;;;;;;5020185;28;20453;-82
2022/09/01 05:51:25;;;;;;;2.07;1.97;;;19.50;83.10;;;;;;5020046;28;20446;-81
2022/09/01 05:54:13;;;;;;;2.20;2.00;;;19.60;83.00;;;;;;5021586;28;20575;-82
2022/09/01 05:56:41;;;;;;;2.43;2.23;;;19.70;82.20;;;;;;5019610;28;20559;-83
2022/09/01 05:59:10;;;;;;;3.50;2.00;;;19.70;83.10;;;;;;5020926;28;20446;-81
2022/09/01 06:01:54;;;;;;;3.03;1.53;;;19.80;83.20;;;;;;5020153;28;20501;-82
2022/09/01 06:04:21;;;;;;;1.83;1.70;;;21.50;81.20;;;;;;5017856;28;20522;-83
2022/09/01 06:06:48;;;;;;;1.90;1.70;;;24.80;71.10;;;;;;5016405;28;20999;-83
2022/09/01 06:09:40;;;;;;;3.57;2.20;;;27.20;60.70;;;;;;5018508;28;20605;-83
2022/09/01 06:12:16;;;;;;;2.53;2.20;;;29.30;54.60;;;;;;5028086;28;20544;-83
2022/09/01 06:14:46;;;;;;;2.17;1.90;;;30.40;50.70;;;;;;5017642;28;20462;-81
2022/09/01 06:17:20;;;;;;;2.30;2.10;;;31.10;48.60;;;;;;5018215;28;20489;-84
2022/09/01 06:19:55;;;;;;;2.07;1.27;;;30.50;46.70;;;;;;5018722;28;20932;-84
2022/09/01 06:22:25;;;;;;;1.47;1.37;;;30.30;47.40;;;;;;5016918;28;20857;-82
2022/09/01 06:24:53;;;;;;;1.67;1.57;;;30.70;47.10;;;;;;5019149;28;20450;-82
2022/09/01 06:27:26;;;;;;;1.27;1.17;;;31.60;45.20;;;;;;5018158;28;20470;-83
2022/09/01 06:29:55;;;;;;;2.60;1.50;;;31.60;44.20;;;;;;5018535;28;20442;-83
2022/09/01 06:32:24;;;;;;;1.90;1.30;;;31.30;44.00;;;;;;5018177;28;20463;-81
2022/09/01 06:34:52;;;;;;;1.47;1.27;;;31.80;43.90;;;;;;5015620;28;20449;-81
2022/09/01 06:37:21;;;;;;;1.70;1.60;;;32.40;42.70;;;;;;5014772;28;20538;-84
2022/09/01 06:39:49;;;;;;;2.17;1.57;;;32.10;42.00;;;;;;5016972;28;20470;-83
2022/09/01 06:42:17;;;;;;;1.40;1.30;;;31.60;43.00;;;;;;5017897;28;20470;-82
2022/09/01 06:44:45;;;;;;;2.23;1.27;;;31.30;42.80;;;;;;5014280;28;20455;-81
2022/09/01 06:47:12;;;;;;;1.70;1.60;;;31.30;43.40;;;;;;5013556;28;20473;-83
2022/09/01 06:49:39;;;;;;;1.40;1.30;;;31.40;42.70;;;;;;5009681;28;20442;-83
2022/09/01 06:52:06;;;;;;;1.50;1.17;;;31.10;43.10;;;;;;5015941;28;20457;-81
2022/09/01 06:54:34;;;;;;;1.50;1.40;;;32.00;42.50;;;;;;5013206;28;20456;-82
2022/09/01 06:57:02;;;;;;;1.20;1.17;;;32.90;41.70;;;;;;5011776;28;20481;-84
2022/09/01 06:59:50;;;;;;;1.43;1.33;;;33.10;40.40;;;;;;5011478;28;21760;-83
2022/09/01 07:02:18;;;;;;;1.67;1.57;;;34.20;39.00;;;;;;5017470;28;20525;-84
2022/09/01 07:04:48;;;;;;;1.27;1.17;;;34.50;37.50;;;;;;5022086;28;20478;-83
2022/09/01 07:07:17;;;;;;;1.57;1.43;;;34.40;37.10;;;;;;5023354;28;20454;-85
2022/09/01 07:10:05;;;;;;;1.70;1.50;;;35.20;36.70;;;;;;5030432;28;20577;-83
2022/09/01 07:12:45;;;;;;;1.40;1.30;;;35.50;35.40;;;;;;5023039;28;20449;-84
2022/09/01 07:15:32;;;;;;;1.60;1.50;;;35.60;34.70;;;;;;5017795;28;20446;-82
2022/09/01 07:18:23;;;;;;;1.47;1.37;;;35.10;35.20;;;;;;5016343;28;21228;-82
2022/09/01 07:20:52;;;;;;;1.17;1.07;;;35.50;35.50;;;;;;5017702;28;20476;-82
2022/09/01 07:23:39;;;;;;;2.13;1.40;;;35.20;34.80;;;;;;5017546;28;20477;-83
2022/09/01 07:26:27;;;;;;;2.37;1.27;;;33.80;35.80;;;;;;5017279;28;20572;-83
2022/09/01 07:28:56;;;;;;;3.10;1.40;;;34.00;37.00;;;;;;5017547;28;21202;-84
2022/09/01 07:31:35;;;;;;;1.70;1.03;;;35.30;35.60;;;;;;5016306;28;20489;-85
2022/09/01 07:34:24;;;;;;;1.53;1.43;;;35.20;34.40;;;;;;5015692;28;20465;-81
2022/09/01 07:37:12;;;;;;;1.40;1.30;;;36.20;33.60;;;;;;5013995;28;20482;-83
2022/09/01 07:39:59;;;;;;;3.30;1.50;;;35.70;33.80;;;;;;5014565;28;20458;-83
2022/09/01 07:42:46;;;;;;;3.13;1.57;;;36.20;33.50;;;;;;5017829;28;20477;-84
2022/09/01 07:45:37;;;;;;;2.60;1.50;;;35.50;33.50;;;;;;5022074;28;20451;-83
2022/09/01 07:48:17;;;;;;;1.90;1.63;;;36.60;33.10;;;;;;5024701;28;20462;-82
2022/09/01 07:51:04;;;;;;;2.63;1.50;;;36.70;32.40;;;;;;5024804;28;20553;-81
2022/09/01 07:53:52;;;;;;;2.43;1.60;;;36.90;32.10;;;;;;5025951;28;20450;-82
2022/09/01 07:56:24;;;;;;;1.63;1.53;;;37.00;32.00;;;;;;5024956;28;20523;-83
2022/09/01 07:58:51;;;;;;;2.53;2.33;;;36.70;32.20;;;;;;5028498;28;20569;-84
2022/09/01 08:01:23;;;;;;;1.57;1.47;;;36.40;32.60;;;;;;5017388;28;20457;-83
2022/09/01 08:04:00;;;;;;;2.07;1.40;;;36.30;32.90;;;;;;5022887;28;20474;-84
2022/09/01 08:06:29;;;;;;;1.50;1.40;;;36.20;32.80;;;;;;5016621;28;20518;-82
2022/09/01 08:09:06;;;;;;;1.27;1.17;;;35.90;32.60;;;;;;5030504;28;20438;-83
2022/09/01 08:11:36;;;;;;;1.67;1.57;;;35.50;33.00;;;;;;5019859;28;20458;-83
2022/09/01 08:14:24;;;;;;;1.53;1.43;;;35.60;33.50;;;;;;5019608;28;21067;-84
2022/09/01 08:16:51;;;;;;;1.73;1.63;;;36.00;32.60;;;;;;5017300;28;20466;-82
2022/09/01 08:19:18;;;;;;;1.80;1.70;;;35.50;32.90;;;;;;5014929;28;20456;-81
2022/09/01 08:21:44;;;;;;;1.53;1.43;;;35.30;33.20;;;;;;5017263;28;21382;-83
2022/09/01 08:24:11;;;;;;;2.23;1.50;;;35.00;33.30;;;;;;5022251;28;20482;-83
2022/09/01 08:26:40;;;;;;;2.10;1.60;;;34.70;33.90;;;;;;5022339;28;20442;-83
2022/09/01 08:29:08;;;;;;;1.90;1.80;;;34.50;33.80;;;;;;5023738;28;20553;-83
2022/09/01 08:31:35;;;;;;;1.70;1.60;;;35.10;33.90;;;;;;5021636;28;20501;-82
2022/09/01 08:34:04;;;;;;;3.30;1.50;;;35.90;32.30;;;;;;5020449;28;20497;-86
2022/09/01 08:36:31;;;;;;;2.17;1.20;;;35.30;33.00;;;;;;5024350;28;20487;-83
2022/09/01 08:38:59;;;;;;;1.40;1.30;;;35.20;32.90;;;;;;5024796;28;20449;-80
2022/09/01 08:41:43;;;;;;;2.17;1.63;;;35.30;32.80;;;;;;5022767;28;20533;-82
2022/09/01 08:44:21;;;;;;;2.43;1.90;;;34.70;33.20;;;;;;5026754;28;20575;-79
2022/09/01 08:46:53;;;;;;;4.80;1.50;;;34.60;33.90;;;;;;5027164;28;20477;-82
2022/09/01 08:49:22;;;;;;;1.67;1.57;;;35.80;32.50;;;;;;5029450;28;20460;-83
2022/09/01 08:52:02;;;;;;;5.77;1.47;;;36.10;31.60;;;;;;5028204;28;20540;-82
2022/09/01 08:54:45;;;;;;;2.70;1.27;;;36.20;31.60;;;;;;5022944;28;20474;-81
2022/09/01 08:57:23;;;;;;;2.03;1.63;;;36.00;31.20;;;;;;5026773;28;20525;-84
2022/09/01 08:59:58;;;;;;;1.67;1.50;;;35.60;31.80;;;;;;5030825;28;20468;-82
2022/09/01 09:02:52;;;;;;;1.63;1.53;;;36.30;31.40;;;;;;5028290;23;20517;-86
2022/09/01 09:05:38;;;;;;;2.70;1.60;;;36.60;30.80;;;;;;5028308;28;20457;-84
2022/09/01 09:08:18;;;;;;;1.50;1.40;;;36.40;31.00;;;;;;5022498;28;20539;-85
2022/09/01 09:10:58;;;;;;;1.83;1.67;;;35.80;31.20;;;;;;5021163;28;20465;-83
2022/09/01 09:14:04;;;;;;;1.73;1.47;;;36.30;30.40;;;;;;5021789;28;20442;-84
2022/09/01 09:16:42;;;;;;;2.60;1.40;;;35.40;31.30;;;;;;4998298;28;20871;-83
2022/09/01 09:19:15;;;;;;;2.60;1.30;;;35.50;31.10;;;;;;5033423;28;20635;-85
2022/09/01 09:21:46;;;;;;;1.40;1.30;;;35.80;30.60;;;;;;5015901;28;20507;-81
2022/09/01 09:24:48;;;;;;;1.53;1.43;;;36.20;30.20;;;;;;5019264;28;20576;-82
2022/09/01 09:27:32;;;;;;;2.20;1.47;;;35.50;30.40;;;;;;5030516;28;20469;-82
2022/09/01 09:30:11;;;;;;;2.40;1.30;;;35.20;30.70;;;;;;5029805;28;20458;-82
2022/09/01 09:32:49;;;;;;;3.07;1.10;;;34.60;31.40;;;;;;5009363;28;20454;-81
2022/09/01 09:35:45;;;;;;;8.80;1.27;;;36.20;29.80;;;;;;5013670;28;20450;-82
2022/09/01 09:38:18;;;;;;;3.60;1.43;;;36.50;29.60;;;;;;5028924;28;20476;-84
2022/09/01 09:40:59;;;;;;;1.33;1.23;;;35.60;29.50;;;;;;5007798;28;20547;-82
2022/09/01 09:43:57;;;;;;;1.00;1.00;;;36.10;29.90;;;;;;5011343;28;20520;-82
2022/09/01 09:46:36;;;;;;;1.30;1.10;;;36.40;29.60;;;;;;5010024;28;20458;-82
2022/09/01 09:49:19;;;;;;;1.80;1.20;;;35.10;29.30;;;;;;5012099;28;20477;-82
2022/09/01 09:51:50;;;;;;;2.30;1.03;;;34.00;31.10;;;;;;5009766;28;20448;-82
2022/09/01 09:54:19;;;;;;;1.27;1.17;;;34.50;29.90;;;;;;5014091;28;20461;-83
2022/09/01 09:57:02;;;;;;;2.03;1.40;;;35.30;29.80;;;;;;5030777;28;20462;-82
2022/09/01 09:59:35;;;;;;;1.30;1.20;;;35.20;29.30;;;;;;5016382;28;20462;-83
2022/09/01 10:02:27;;;;;;;1.37;1.27;;;32.50;31.80;;;;;;5031217;28;20492;-82
2022/09/01 10:04:55;;;;;;;1.17;1.07;;;31.40;33.00;;;;;;5018358;28;20470;-83
2022/09/01 10:07:29;;;;;;;1.13;1.07;;;29.90;34.00;;;;;;5020593;28;22038;-81
2022/09/01 10:10:00;;;;;;;3.73;1.40;;;28.70;35.20;;;;;;5020816;28;20461;-83
2022/09/01 10:12:29;;;;;;;1.30;1.10;;;28.90;35.00;;;;;;5019206;28;20446;-83
2022/09/01 10:15:01;;;;;;;1.37;1.10;;;30.20;34.50;;;;;;5021127;28;20454;-84
2022/09/01 10:17:37;;;;;;;1.33;1.23;;;32.20;32.80;;;;;;5019244;28;20520;-81
2022/09/01 10:20:19;;;;;;;2.70;1.60;;;33.10;30.80;;;;;;5017072;28;20446;-84
2022/09/01 10:22:47;;;;;;;3.27;1.30;;;33.10;31.30;;;;;;5018431;28;20526;-83
2022/09/01 10:25:28;;;;;;;1.70;1.23;;;33.00;31.20;;;;;;5016818;28;20454;-82
2022/09/01 10:28:05;;;;;;;2.90;1.10;;;33.50;30.70;;;;;;5014018;28;20470;-81
2022/09/01 10:30:33;;;;;;;2.60;1.07;;;33.60;30.60;;;;;;5015214;28;20458;-81
2022/09/01 10:33:00;;;;;;;1.90;1.30;;;34.30;30.20;;;;;;5015130;28;20442;-85
2022/09/01 10:35:41;;;;;;;1.63;1.40;;;33.70;30.50;;;;;;5015804;28;20438;-85
2022/09/01 10:38:15;;;;;;;1.30;1.20;;;34.30;30.00;;;;;;5012413;28;20470;-81
2022/09/01 10:41:05;;;;;;;1.40;1.30;;;33.80;31.20;;;;;;5010839;28;20591;-83
2022/09/01 10:43:47;;;;;;;1.50;1.40;;;32.50;31.50;;;;;;5030268;28;20498;-82
2022/09/01 10:46:37;;;;;;;1.60;1.40;;;31.20;33.50;;;;;;5007552;28;20784;-82
2022/09/01 10:49:32;;;;;;;2.27;1.50;;;31.40;33.70;;;;;;5008708;28;20552;-83
2022/09/01 10:51:59;;;;;;;3.53;1.27;;;32.90;32.50;;;;;;4991507;28;20450;-83
2022/09/01 10:54:40;;;;;;;2.07;1.37;;;33.80;30.60;;;;;;5004212;28;20454;-82
2022/09/01 10:57:51;;;;;;;1.97;1.33;;;33.20;31.10;;;;;;5002294;28;20514;-81
2022/09/01 11:00:18;;;;;;;1.43;1.33;;;32.70;31.80;;;;;;5001548;28;20516;-84
2022/09/01 11:03:14;;;;;;;2.40;1.60;;;33.10;30.50;;;;;;5003674;28;21692;-84
2022/09/01 11:05:57;;;;;;;1.50;1.40;;;32.30;31.40;;;;;;5001930;28;20458;-84
2022/09/01 11:08:44;;;;;;;1.27;1.17;;;31.90;32.10;;;;;;5004421;28;20496;-84
2022/09/01 11:11:54;;;;;;;1.63;1.53;;;31.90;31.70;;;;;;4998848;28;20445;-83
2022/09/01 11:14:28;;;;;;;2.00;1.90;;;30.70;33.70;;;;;;5002204;28;21017;-83
2022/09/01 11:17:16;;;;;;;1.50;1.40;;;30.30;34.60;;;;;;4997331;28;20514;-82
2022/09/01 11:19:56;;;;;;;2.93;1.80;;;30.60;33.80;;;;;;5002463;28;20538;-82
2022/09/01 11:22:33;;;;;;;2.90;1.87;;;30.60;34.60;;;;;;5001342;28;20462;-81
2022/09/01 11:25:33;;;;;;;1.67;1.57;;;31.10;34.40;;;;;;5004637;28;20473;-82
2022/09/01 11:28:38;;;;;;;2.00;1.80;;;30.60;35.60;;;;;;5005697;28;20458;-81
2022/09/01 11:31:29;;;;;;;2.77;1.70;;;30.10;35.90;;;;;;4999447;28;20505;-82
2022/09/01 11:34:13;;;;;;;1.67;1.57;;;29.70;36.40;;;;;;5003265;28;20465;-83
2022/09/01 11:36:48;;;;;;;2.50;1.60;;;29.40;36.30;;;;;;5000408;28;20459;-83
2022/09/01 11:39:18;;;;;;;2.03;1.93;;;28.80;37.70;;;;;;5002225;28;20453;-82
2022/09/01 11:41:54;;;;;;;2.00;1.90;;;28.20;38.60;;;;;;5004644;28;20611;-82
2022/09/01 11:44:38;;;;;;;2.07;1.87;;;27.60;39.90;;;;;;5001359;28;20478;-80
2022/09/01 11:47:10;;;;;;;2.00;1.90;;;27.40;40.20;;;;;;5002683;28;20505;-82
2022/09/01 11:49:48;;;;;;;3.43;1.73;;;27.30;40.80;;;;;;5003988;28;20458;-83
2022/09/01 11:52:17;;;;;;;2.20;2.10;;;27.60;40.80;;;;;;5012950;28;20454;-82
2022/09/01 11:54:45;;;;;;;2.33;1.77;;;27.70;40.30;;;;;;5002794;28;20524;-84
2022/09/01 11:57:29;;;;;;;1.87;1.77;;;27.70;40.20;;;;;;4999953;28;20513;-82
2022/09/01 11:59:58;;;;;;;2.20;2.10;;;27.70;40.10;;;;;;5002398;28;20454;-84
2022/09/01 12:02:33;;;;;;;1.83;1.73;;;28.00;40.20;;;;;;5004808;28;20488;-82
2022/09/01 12:05:27;;;;;;;2.13;1.93;;;28.70;39.10;;;;;;5000269;28;20500;-83
2022/09/01 12:07:55;;;;;;;1.83;1.73;;;28.60;38.60;;;;;;5004520;28;20575;-82
2022/09/01 12:10:30;;;;;;;2.00;1.90;;;28.40;39.10;;;;;;5003461;28;20446;-80
2022/09/01 12:13:22;;;;;;;2.33;2.23;;;28.30;39.60;;;;;;5002973;28;20450;-82
2022/09/01 12:15:57;;;;;;;2.10;2.00;;;29.30;39.00;;;;;;5000838;28;20466;-84
2022/09/01 12:18:47;;;;;;;2.30;2.10;;;30.20;37.20;;;;;;5015371;28;21736;-82
2022/09/01 12:21:29;;;;;;;2.37;2.17;;;29.70;37.00;;;;;;5002892;28;20552;-81
2022/09/01 12:24:12;;;;;;;2.40;2.13;;;29.20;37.80;;;;;;5002517;28;20913;-84
2022/09/01 12:26:40;;;;;;;2.30;2.20;;;29.30;38.40;;;;;;5000277;28;20461;-84
2022/09/01 12:29:08;;;;;;;2.47;2.27;;;29.40;37.90;;;;;;5000375;28;20446;-83
2022/09/01 12:31:36;;;;;;;2.93;2.10;;;30.30;36.80;;;;;;5000377;28;20455;-84
2022/09/01 12:34:03;;;;;;;2.43;2.23;;;30.40;36.30;;;;;;4999110;28;20454;-82
2022/09/01 12:36:36;;;;;;;2.60;2.40;;;30.50;37.20;;;;;;4994010;28;20458;-81
2022/09/01 12:39:18;;;;;;;2.70;2.50;;;30.90;36.40;;;;;;4999399;28;20492;-82
2022/09/01 12:42:00;;;;;;;2.37;2.13;;;30.70;37.30;;;;;;5000199;28;20477;-82
2022/09/01 12:44:29;;;;;;;2.47;2.27;;;30.80;36.80;;;;;;5001348;28;20497;-83
2022/09/01 12:47:05;;;;;;;1.87;1.77;;;30.80;35.90;;;;;;5000889;28;20458;-82
2022/09/01 12:49:38;;;;;;;2.63;2.43;;;30.40;36.70;;;;;;5002167;28;20454;-83
2022/09/01 12:52:24;;;;;;;2.53;2.33;;;29.90;37.00;;;;;;5001488;28;20978;-84
2022/09/01 12:55:13;;;;;;;2.60;2.40;;;29.10;38.20;;;;;;5004201;28;20446;-83
2022/09/01 12:58:03;;;;;;;2.70;2.50;;;28.60;39.40;;;;;;5008303;28;20496;-83
2022/09/01 13:00:33;;;;;;;2.80;2.60;;;28.70;39.90;;;;;;5018864;28;20469;-83
2022/09/01 13:03:13;;;;;;;2.60;2.30;;;28.60;40.20;;;;;;5001351;28;20481;-84
2022/09/01 13:05:40;;;;;;;2.60;2.40;;;28.40;40.40;;;;;;4996542;28;20473;-83
2022/09/01 13:08:15;;;;;;;4.23;2.50;;;28.20;40.90;;;;;;4995369;28;20543;-82
2022/09/01 13:10:52;;;;;;;2.60;2.50;;;28.10;41.60;;;;;;5001413;28;20524;-83
2022/09/01 13:13:20;;;;;;;2.50;2.30;;;28.30;41.10;;;;;;5013396;28;20515;-83
2022/09/01 13:15:50;;;;;;;2.70;2.40;;;28.50;40.20;;;;;;5005925;28;20469;-83
2022/09/01 13:18:19;;;;;;;2.50;2.30;;;28.50;40.10;;;;;;5005565;28;20477;-83
2022/09/01 13:20:46;;;;;;;4.27;2.50;;;28.80;39.70;;;;;;5024099;28;20454;-84
2022/09/01 13:23:13;;;;;;;3.73;2.47;;;29.20;39.20;;;;;;5006232;28;20461;-82
2022/09/01 13:25:43;;;;;;;2.40;2.30;;;29.40;39.20;;;;;;5011116;28;20485;-84
2022/09/01 13:28:10;;;;;;;11.43;10.20;;;29.90;38.00;;;;;;5020551;28;20469;-84